createdAt,value
2022-08-18T00:02:14.534Z,98140.97
2022-08-18T00:04:48.929Z,98138.25
2022-08-18T00:07:28.024Z,98140.97
2022-08-18T00:09:55.826Z,98135.56
2022-08-18T00:12:28.295Z,98132.31
2022-08-18T00:14:56.606Z,98131.25
2022-08-18T00:17:24.382Z,98134.75
2022-08-18T00:19:51.798Z,98133.41
2022-08-18T00:22:21.061Z,98136.09
2022-08-18T00:24:55.451Z,98143.66
2022-08-18T00:27:29.337Z,98140.13
2022-08-18T00:30:00.195Z,98146.59
2022-08-18T00:32:55.264Z,98149.59
2022-08-18T00:35:32.363Z,98140.94
2022-08-18T00:38:01.611Z,98141.44
2022-08-18T00:40:38.154Z,98141.69
2022-08-18T00:43:08.698Z,98131.72
2022-08-18T00:45:39.287Z,98129.84
2022-08-18T00:48:08.969Z,98137.38
2022-08-18T00:50:42.686Z,98130.09
2022-08-18T00:53:19.780Z,98122.53
2022-08-18T00:55:54.244Z,98125.22
2022-08-18T00:58:32.329Z,98124.13
2022-08-18T01:01:06.987Z,98130.88
2022-08-18T01:03:39.775Z,98120.88
2022-08-18T01:06:23.787Z,98123.88
2022-08-18T01:08:52.608Z,98119.28
2022-08-18T01:11:20.465Z,98125.75
2022-08-18T01:13:47.963Z,98128.97
2022-08-18T01:16:36.075Z,98120.88
2022-08-18T01:19:22.919Z,98125.47
2022-08-18T01:21:57.007Z,98127.34
2022-08-18T01:24:48.997Z,98126.81
2022-08-18T01:27:18.564Z,98133.28
2022-08-18T01:29:49.662Z,98128.97
2022-08-18T01:32:20.734Z,98132.72
2022-08-18T01:34:51.139Z,98135.94
2022-08-18T01:37:21.909Z,98132.69
2022-08-18T01:41:24.475Z,98131.91
2022-08-18T01:42:39.453Z,98119.22
2022-08-18T01:45:08.155Z,98113.25
2022-08-18T01:47:47.674Z,98112.16
2022-08-18T01:50:17.782Z,98108.41
2022-08-18T01:52:45.399Z,98103.00
2022-08-18T01:55:14.715Z,98105.41
2022-08-18T01:57:44.937Z,98107.31
2022-08-18T02:00:16.581Z,98108.13
2022-08-18T02:02:44.415Z,98097.56
2022-08-18T02:05:16.890Z,98095.97
2022-08-18T02:07:44.578Z,98096.75
2022-08-18T02:10:16.633Z,98088.94
2022-08-18T02:12:44.386Z,98092.72
2022-08-18T02:15:12.179Z,98084.88
2022-08-18T02:17:42.262Z,98077.06
2022-08-18T02:20:13.999Z,98084.59
2022-08-18T02:22:42.606Z,98072.97
2022-08-18T02:25:10.453Z,98077.56
2022-08-18T02:27:37.973Z,98087.56
2022-08-18T02:30:09.310Z,98085.66
2022-08-18T02:32:37.231Z,98084.84
2022-08-18T02:35:08.330Z,98086.75
2022-08-18T02:37:42.234Z,98093.75
2022-08-18T02:40:15.236Z,98104.53
2022-08-18T02:42:45.720Z,98108.88
2022-08-18T02:45:14.231Z,98101.28
2022-08-18T02:47:44.315Z,98097.78
2022-08-18T02:50:13.738Z,98101.00
2022-08-18T02:52:41.339Z,98099.34
2022-08-18T02:55:09.401Z,98101.25
2022-08-18T02:57:42.062Z,98098.00
2022-08-18T03:00:12.478Z,98104.75
2022-08-18T03:02:42.045Z,98112.28
2022-08-18T03:05:14.767Z,98110.94
2022-08-18T03:07:43.239Z,98112.53
2022-08-18T03:10:33.571Z,98109.84
2022-08-18T03:13:00.019Z,98124.41
2022-08-18T03:15:27.560Z,98129.00
2022-08-18T03:17:56.185Z,98135.19
2022-08-18T03:20:30.224Z,98135.19
2022-08-18T03:22:59.297Z,98131.41
2022-08-18T03:25:26.964Z,98132.97
2022-08-18T03:27:54.348Z,98141.63
2022-08-18T03:30:21.865Z,98145.41
2022-08-18T03:32:50.769Z,98138.38
2022-08-18T03:35:18.761Z,98139.19
2022-08-18T03:37:46.533Z,98134.63
2022-08-18T03:40:15.808Z,98141.06
2022-08-18T03:42:43.298Z,98135.13
2022-08-18T03:45:13.289Z,98132.19
2022-08-18T03:47:46.116Z,98135.13
2022-08-18T03:50:14.254Z,98137.00
2022-08-18T03:52:41.982Z,98139.97
2022-08-18T03:55:09.695Z,98142.09
2022-08-18T03:57:39.066Z,98143.19
2022-08-18T04:00:09.660Z,98140.25
2022-08-18T04:02:37.974Z,98141.84
2022-08-18T04:05:06.773Z,98139.97
2022-08-18T04:07:34.987Z,98137.25
2022-08-18T04:10:02.727Z,98130.25
2022-08-18T04:12:30.326Z,98143.19
2022-08-18T04:14:57.770Z,98145.88
2022-08-18T04:17:25.639Z,98146.44
2022-08-18T04:19:55.097Z,98151.28
2022-08-18T04:22:23.240Z,98146.94
2022-08-18T04:24:51.279Z,98145.88
2022-08-18T04:27:21.159Z,98146.13
2022-08-18T04:29:48.569Z,98148.03
2022-08-18T04:32:16.465Z,98153.41
2022-08-18T04:34:44.427Z,98144.81
2022-08-18T04:37:12.338Z,98149.94
2022-08-18T04:39:40.076Z,98152.94
2022-08-18T04:42:08.466Z,98151.88
2022-08-18T04:44:37.898Z,98153.50
2022-08-18T04:47:07.855Z,98155.13
2022-08-18T04:49:37.182Z,98157.31
2022-08-18T04:52:40.221Z,98146.00
2022-08-18T04:55:11.185Z,98156.25
2022-08-18T04:57:38.953Z,98147.72
2022-08-18T05:00:07.410Z,98141.84
2022-08-18T05:02:35.187Z,98140.31
2022-08-18T05:05:03.934Z,98141.91
2022-08-18T05:07:31.768Z,98141.91
2022-08-18T05:09:59.741Z,98146.50
2022-08-18T05:12:27.158Z,98142.44
2022-08-18T05:14:57.273Z,98138.66
2022-08-18T05:17:29.064Z,98141.03
2022-08-18T05:20:02.097Z,98145.09
2022-08-18T05:22:36.925Z,98151.59
2022-08-18T05:25:05.498Z,98150.50
2022-08-18T05:27:35.186Z,98152.13
2022-08-18T05:30:05.456Z,98153.75
2022-08-18T05:32:49.083Z,98159.16
2022-08-18T05:35:26.536Z,98162.94
2022-08-18T05:38:02.950Z,98157.53
2022-08-18T05:40:31.822Z,98159.97
2022-08-18T05:43:00.260Z,98157.81
2022-08-18T05:45:28.006Z,98152.16
2022-08-18T05:48:00.284Z,98154.06
2022-08-18T05:50:31.956Z,98154.06
2022-08-18T05:53:13.489Z,98152.72
2022-08-18T05:56:05.003Z,98154.31
2022-08-18T05:58:38.596Z,98154.31
2022-08-18T06:01:13.498Z,98155.16
2022-08-18T06:03:49.998Z,98160.56
2022-08-18T06:06:22.964Z,98162.16
2022-08-18T06:09:01.454Z,98163.81
2022-08-18T06:11:28.865Z,98167.06
2022-08-18T06:14:00.000Z,98171.38
2022-08-18T06:16:59.588Z,98169.78
2022-08-18T06:19:46.418Z,98166.00
2022-08-18T06:22:29.859Z,98170.88
2022-08-18T06:25:22.097Z,98174.94
2022-08-18T06:27:55.657Z,98178.72
2022-08-18T06:30:37.437Z,98183.03
2022-08-18T06:33:29.664Z,98183.03
2022-08-18T06:36:12.598Z,98173.03
2022-08-18T06:39:06.264Z,98176.03
2022-08-18T06:41:45.485Z,98183.06
2022-08-18T06:44:19.535Z,98178.75
2022-08-18T06:47:11.181Z,98184.69
2022-08-18T06:49:46.850Z,98174.69
2022-08-18T06:52:26.564Z,98180.91
2022-08-18T06:54:56.402Z,98180.91
2022-08-18T06:57:34.793Z,98183.34
2022-08-18T07:00:17.898Z,98178.50
2022-08-18T07:02:54.406Z,98181.47
2022-08-18T07:05:30.872Z,98183.38
2022-08-18T07:08:18.639Z,98179.84
2022-08-18T07:10:49.442Z,98185.56
2022-08-18T07:13:26.397Z,98179.63
2022-08-18T07:15:57.112Z,98177.47
2022-08-18T07:18:28.742Z,98175.34
2022-08-18T07:21:00.883Z,98183.19
2022-08-18T07:23:34.520Z,98179.41
2022-08-18T07:26:12.082Z,98175.34
2022-08-18T07:28:49.183Z,98175.09
2022-08-18T07:31:19.733Z,98174.59
2022-08-18T07:33:53.202Z,98176.19
2022-08-18T07:36:24.445Z,98172.44
2022-08-18T07:38:58.265Z,98163.78
2022-08-18T07:41:50.799Z,98163.25
2022-08-18T07:44:25.239Z,98158.94
2022-08-18T07:47:01.859Z,98165.41
2022-08-18T07:49:35.574Z,98157.28
2022-08-18T07:52:35.811Z,98146.50
2022-08-18T07:55:10.934Z,98153.00
2022-08-18T07:57:47.011Z,98158.13
2022-08-18T08:00:35.091Z,98162.75
2022-08-18T08:03:30.652Z,98162.44
2022-08-18T08:06:08.693Z,98157.34
2022-08-18T08:08:44.620Z,98168.44
2022-08-18T08:11:38.427Z,98168.69
2022-08-18T08:14:26.532Z,98165.75
2022-08-18T08:17:04.675Z,98175.19
2022-08-18T08:20:00.495Z,98179.78
2022-08-18T08:22:48.810Z,98180.09
2022-08-18T08:25:46.807Z,98179.78
2022-08-18T08:28:33.402Z,98189.53
2022-08-18T08:31:37.368Z,98193.06
2022-08-18T08:34:12.239Z,98200.66
2022-08-18T08:36:42.383Z,98202.25
2022-08-18T08:39:16.457Z,98207.41
2022-08-18T08:41:51.830Z,98208.75
2022-08-18T08:44:29.457Z,98206.84
2022-08-18T08:47:05.408Z,98202.00
2022-08-18T08:50:00.439Z,98208.75
2022-08-18T08:52:40.669Z,98210.38
2022-08-18T08:55:21.385Z,98197.41
2022-08-18T08:57:55.894Z,98200.66
2022-08-18T09:00:24.568Z,98191.47
2022-08-18T09:03:08.836Z,98192.03
2022-08-18T09:05:59.530Z,98190.94
2022-08-18T09:08:44.587Z,98189.31
2022-08-18T09:11:21.197Z,98194.19
2022-08-18T09:14:25.581Z,98195.81
2022-08-18T09:17:20.408Z,98200.72
2022-08-18T09:20:06.660Z,98199.63
2022-08-18T09:22:34.291Z,98198.56
2022-08-18T09:25:02.481Z,98200.16
2022-08-18T09:28:08.883Z,98200.69
2022-08-18T09:30:47.571Z,98197.47
2022-08-18T09:33:32.020Z,98198.03
2022-08-18T09:36:13.058Z,98202.34
2022-08-18T09:39:43.517Z,98194.78
2022-08-18T09:42:16.263Z,98188.81
2022-08-18T09:44:46.404Z,98195.06
2022-08-18T09:47:20.701Z,98198.31
2022-08-18T09:49:55.333Z,98201.56
2022-08-18T09:52:24.185Z,98196.16
2022-08-18T09:54:58.538Z,98198.56
2022-08-18T09:57:43.809Z,98192.63
2022-08-18T10:00:15.017Z,98194.25
2022-08-18T10:02:48.612Z,98201.28
2022-08-18T10:05:17.006Z,98191.81
2022-08-18T10:07:46.268Z,98186.16
2022-08-18T10:11:01.270Z,98179.09
2022-08-18T10:13:50.905Z,98178.53
2022-08-18T10:16:18.965Z,98183.44
2022-08-18T10:19:10.558Z,98179.63
2022-08-18T10:21:56.130Z,98180.72
2022-08-18T10:24:35.904Z,98182.34
2022-08-18T10:27:09.704Z,98171.25
2022-08-18T10:29:50.904Z,98165.03
2022-08-18T10:32:24.783Z,98159.63
2022-08-18T10:34:55.347Z,98160.16
2022-08-18T10:37:25.988Z,98159.09
2022-08-18T10:40:08.056Z,98152.59
2022-08-18T10:42:41.172Z,98152.03
2022-08-18T10:45:24.583Z,98141.75
2022-08-18T10:48:04.933Z,98141.47
2022-08-18T10:50:53.258Z,98138.50
2022-08-18T10:53:38.928Z,98139.06
2022-08-18T10:59:28.477Z,98128.75
2022-08-18T11:02:17.762Z,98119.53
2022-08-18T11:07:39.701Z,98119.03
2022-08-18T11:10:30.089Z,98123.63
2022-08-18T11:13:23.956Z,98117.69
2022-08-18T11:16:31.463Z,98113.91
2022-08-18T11:19:08.620Z,98118.22
2022-08-18T11:21:42.231Z,98112.53
2022-08-18T11:24:32.289Z,98109.84
2022-08-18T11:27:03.287Z,98098.44
2022-08-18T11:29:39.856Z,98100.06
2022-08-18T11:35:11.897Z,98097.34
2022-08-18T11:37:53.383Z,98104.41
2022-08-18T11:46:28.271Z,98084.34
2022-08-18T11:49:01.040Z,98078.66
2022-08-18T11:51:32.128Z,98078.38
2022-08-18T11:54:02.053Z,98071.88
2022-08-18T11:56:35.778Z,98067.50
2022-08-18T11:59:09.307Z,98059.94
2022-08-18T12:01:51.241Z,98048.28
2022-08-18T12:04:40.195Z,98056.16
2022-08-18T12:07:14.931Z,98053.97
2022-08-18T12:10:17.985Z,98068.59
2022-08-18T12:12:51.971Z,98045.84
2022-08-18T12:15:36.586Z,98051.81
2022-08-18T12:18:26.441Z,98048.56
2022-08-18T12:20:58.989Z,98049.91
2022-08-18T12:23:27.118Z,98042.59
2022-08-18T12:25:54.768Z,98041.78
2022-08-18T12:28:22.862Z,98039.88
2022-08-18T12:30:57.276Z,98032.00
2022-08-18T12:33:34.375Z,98039.34
2022-08-18T12:36:15.831Z,98032.00
2022-08-18T12:38:45.684Z,98035.25
2022-08-18T12:44:12.954Z,98042.53
2022-08-18T12:46:42.365Z,98030.59
2022-08-18T12:49:16.308Z,98031.13
2022-08-18T12:51:44.414Z,98027.06
2022-08-18T12:54:12.686Z,98022.47
2022-08-18T12:56:42.635Z,98023.00
2022-08-18T12:59:10.823Z,98023.00
2022-08-18T13:01:40.569Z,98028.97
2022-08-18T13:04:12.595Z,98033.84
2022-08-18T13:07:01.332Z,98035.44
2022-08-18T13:09:47.729Z,98030.03
2022-08-18T13:12:22.653Z,98030.81
2022-08-18T13:14:54.817Z,98039.47
2022-08-18T13:17:28.949Z,98035.69
2022-08-18T13:20:07.588Z,98044.63
2022-08-18T13:22:40.363Z,98047.34
2022-08-18T13:25:11.132Z,98056.53
2022-08-18T13:30:29.921Z,98056.53
2022-08-18T13:33:05.827Z,98056.53
2022-08-18T13:35:52.159Z,98059.78
2022-08-18T13:38:28.120Z,98063.06
2022-08-18T13:40:58.976Z,98079.84
2022-08-18T13:43:32.132Z,98076.84
2022-08-18T13:45:59.938Z,98075.75
2022-08-18T13:48:29.824Z,98067.34
2022-08-18T13:50:59.914Z,98060.34
2022-08-18T13:53:31.666Z,98054.91
2022-08-18T13:55:59.992Z,98059.22
2022-08-18T13:58:29.224Z,98065.44
2022-08-18T14:01:39.802Z,98064.09
2022-08-18T14:03:50.938Z,98061.41
2022-08-18T14:06:23.058Z,98057.59
2022-08-18T14:08:52.820Z,98056.50
2022-08-18T14:11:26.137Z,98054.81
2022-08-18T14:13:55.119Z,98056.47
2022-08-18T14:16:26.662Z,98055.34
2022-08-18T14:19:13.900Z,98054.56
2022-08-18T14:22:03.645Z,98054.81
2022-08-18T14:24:51.616Z,98061.88
2022-08-18T14:27:34.744Z,98055.88
2022-08-18T14:30:09.934Z,98062.94
2022-08-18T14:32:48.679Z,98046.69
2022-08-18T14:35:33.574Z,98050.47
2022-08-18T14:38:09.813Z,98046.16
2022-08-18T14:40:41.747Z,98039.63
2022-08-18T14:43:16.224Z,98036.94
2022-08-18T14:45:48.693Z,98033.13
2022-08-18T14:48:20.473Z,98025.81
2022-08-18T14:50:52.986Z,98029.84
2022-08-18T14:53:22.955Z,98023.88
2022-08-18T14:55:52.676Z,98018.47
2022-08-18T14:58:28.628Z,98027.66
2022-08-18T15:00:57.204Z,98030.97
2022-08-18T15:03:31.247Z,98022.00
2022-08-18T15:06:04.660Z,98022.00
2022-08-18T15:08:35.325Z,98015.78
2022-08-18T15:11:06.032Z,98019.00
2022-08-18T15:13:45.288Z,98024.44
2022-08-18T15:16:15.201Z,98028.25
2022-08-18T15:18:44.959Z,98038.50
2022-08-18T15:21:34.896Z,98038.50
2022-08-18T15:24:26.607Z,98032.28
2022-08-18T15:26:57.709Z,98036.06
2022-08-18T15:29:28.008Z,98032.56
2022-08-18T15:32:05.312Z,98029.84
2022-08-18T15:34:46.665Z,98026.06
2022-08-18T15:37:24.097Z,98026.06
2022-08-18T15:40:21.720Z,98028.25
2022-08-18T15:43:01.886Z,98030.66
2022-08-18T15:45:37.669Z,98022.00
2022-08-18T15:48:12.580Z,98030.66
2022-08-18T15:50:40.517Z,98034.75
2022-08-18T15:53:11.652Z,98041.28
2022-08-18T15:55:40.689Z,98046.69
2022-08-18T15:58:10.948Z,98038.03
2022-08-18T16:00:45.471Z,98038.03
2022-08-18T16:03:15.914Z,98035.31
2022-08-18T16:05:53.167Z,98030.97
2022-08-18T16:08:24.129Z,98036.38
2022-08-18T16:10:53.440Z,98030.16
2022-08-18T16:13:21.498Z,98026.94
2022-08-18T16:15:50.317Z,98034.25
2022-08-18T16:18:21.018Z,98028.03
2022-08-18T16:20:52.783Z,98023.69
2022-08-18T16:23:24.618Z,98029.09
2022-08-18T16:25:52.470Z,98022.38
2022-08-18T16:28:19.872Z,98009.91
2022-08-18T16:30:47.618Z,98013.69
2022-08-18T16:33:15.072Z,98023.47
2022-08-18T16:35:45.310Z,98019.13
2022-08-18T16:38:13.803Z,98026.44
2022-08-18T16:40:41.863Z,98019.69
2022-08-18T16:43:10.413Z,98019.16
2022-08-18T16:45:39.492Z,98018.38
2022-08-18T16:48:08.144Z,98031.06
2022-08-18T16:50:37.757Z,98038.66
2022-08-18T16:53:05.578Z,98029.72
2022-08-18T16:55:34.118Z,98031.88
2022-08-18T16:58:20.438Z,98023.75
2022-08-18T17:01:06.837Z,98007.78
2022-08-18T17:03:52.754Z,98001.88
2022-08-18T17:06:20.453Z,97994.28
2022-08-18T17:08:48.347Z,97999.69
2022-08-18T17:11:18.338Z,98001.88
2022-08-18T17:13:47.661Z,97988.59
2022-08-18T17:16:17.766Z,97990.50
2022-08-18T17:18:45.935Z,97995.94
2022-08-18T17:21:18.302Z,98000.81
2022-08-18T17:23:46.004Z,97998.41
2022-08-18T17:26:53.821Z,97998.41
2022-08-18T17:29:45.917Z,98006.81
2022-08-18T17:32:20.186Z,98016.00
2022-08-18T17:34:54.909Z,98019.00
2022-08-18T17:37:23.943Z,98030.91
2022-08-18T17:40:00.520Z,98027.97
2022-08-18T17:42:33.444Z,98030.69
2022-08-18T17:45:07.346Z,98025.53
2022-08-18T17:48:06.131Z,98026.91
2022-08-18T17:51:06.868Z,98034.50
2022-08-18T17:53:36.242Z,98043.69
2022-08-18T17:56:10.194Z,98045.84
2022-08-18T17:58:49.281Z,98042.63
2022-08-18T18:01:17.286Z,98046.44
2022-08-18T18:03:44.905Z,98048.59
2022-08-18T18:06:33.905Z,98058.88
2022-08-18T18:09:07.008Z,98060.00
2022-08-18T18:11:41.307Z,98058.34
2022-08-18T18:14:29.928Z,98062.16
2022-08-18T18:17:14.467Z,98063.50
2022-08-18T18:19:45.617Z,98070.28
2022-08-18T18:22:26.072Z,98065.16
2022-08-18T18:24:56.577Z,98065.44
2022-08-18T18:27:33.203Z,98064.91
2022-08-18T18:30:06.578Z,98060.56
2022-08-18T18:32:59.082Z,98060.03
2022-08-18T18:35:54.568Z,98051.41
2022-08-18T18:38:35.478Z,98056.81
2022-08-18T18:41:22.236Z,98053.00
2022-08-18T18:43:51.168Z,98052.16
2022-08-18T18:46:29.836Z,98050.81
2022-08-18T18:49:33.331Z,98046.50
2022-08-18T18:52:13.208Z,98043.81
2022-08-18T18:55:07.346Z,98044.88
2022-08-18T18:57:49.803Z,98033.50
2022-08-18T19:00:23.055Z,98030.81
2022-08-18T19:03:17.058Z,98027.56
2022-08-18T19:06:13.855Z,98023.53
2022-08-18T19:09:13.562Z,98021.09
2022-08-18T19:12:05.550Z,98017.03
2022-08-18T19:15:00.200Z,98014.63
2022-08-18T19:17:40.728Z,98007.84
2022-08-18T19:20:15.797Z,98004.34
2022-08-18T19:22:54.714Z,97997.03
2022-08-18T19:25:29.034Z,97980.00
2022-08-18T19:28:03.168Z,97971.34
2022-08-18T19:30:34.218Z,97977.81
2022-08-18T19:33:04.713Z,97984.34
2022-08-18T19:35:50.117Z,97990.81
2022-08-18T19:38:33.776Z,97980.28
2022-08-18T19:41:07.296Z,97976.75
2022-08-18T19:43:44.761Z,97974.59
2022-08-18T19:46:27.669Z,97972.97
2022-08-18T19:49:18.527Z,97985.69
2022-08-18T19:51:50.067Z,97986.00
2022-08-18T19:54:44.663Z,97973.53
2022-08-18T19:57:40.975Z,97975.69
2022-08-18T20:00:30.799Z,97964.88
2022-08-18T20:03:11.430Z,97961.66
2022-08-18T20:05:56.287Z,97970.84
2022-08-18T20:08:36.564Z,97972.22
2022-08-18T20:11:41.280Z,97967.88
2022-08-18T20:14:12.049Z,97966.81
2022-08-18T20:16:44.872Z,97962.22
2022-08-18T20:19:35.665Z,97966.50
2022-08-18T20:22:06.207Z,97965.97
2022-08-18T20:25:08.241Z,97958.97
2022-08-18T20:27:44.550Z,97957.88
2022-08-18T20:30:30.542Z,97965.19
2022-08-18T20:33:15.343Z,97949.75
2022-08-18T20:35:51.968Z,97946.81
2022-08-18T20:38:35.229Z,97946.50
2022-08-18T20:41:31.350Z,97940.88
2022-08-18T20:44:29.243Z,97950.84
2022-08-18T20:47:22.096Z,97951.16
2022-08-18T20:50:33.925Z,97951.94
2022-08-18T20:53:24.705Z,97953.03
2022-08-18T20:55:57.517Z,97955.75
2022-08-18T20:58:32.069Z,97952.22
2022-08-18T21:01:01.634Z,97956.81
2022-08-18T21:03:42.835Z,97955.22
2022-08-18T21:06:13.155Z,97940.06
2022-08-18T21:08:48.929Z,97950.34
2022-08-18T21:11:32.130Z,97937.09
2022-08-18T21:14:04.070Z,97938.19
2022-08-18T21:16:52.209Z,97934.69
2022-08-18T21:19:24.396Z,97933.88
2022-08-18T21:21:57.157Z,97931.44
2022-08-18T21:24:40.593Z,97928.19
2022-08-18T21:27:20.909Z,97935.75
2022-08-18T21:29:49.801Z,97930.63
2022-08-18T21:32:21.788Z,97932.50
2022-08-18T21:34:50.533Z,97933.59
2022-08-18T21:37:19.456Z,97944.13
2022-08-18T21:39:55.250Z,97949.81
2022-08-18T21:42:44.809Z,97949.81
2022-08-18T21:45:23.186Z,97952.50
2022-08-18T21:47:54.489Z,97946.28
2022-08-18T21:50:31.317Z,97943.31
2022-08-18T21:53:02.362Z,97946.28
2022-08-18T21:55:37.378Z,97943.03
2022-08-18T21:58:16.594Z,97943.88
2022-08-18T22:01:20.593Z,97938.72
2022-08-18T22:04:02.894Z,97949.28
2022-08-18T22:06:33.522Z,97941.97
2022-08-18T22:09:35.297Z,97945.75
2022-08-18T22:12:42.703Z,97942.22
2022-08-18T22:15:42.187Z,97941.44
2022-08-18T22:18:18.521Z,97936.28
2022-08-18T22:20:50.105Z,97939.78
2022-08-18T22:23:54.729Z,97931.97
2022-08-18T22:26:28.151Z,97939.00
2022-08-18T22:29:31.684Z,97931.97
2022-08-18T22:32:01.534Z,97935.75
2022-08-18T22:34:32.019Z,97941.16
2022-08-18T22:37:27.709Z,97946.56
2022-08-18T22:40:01.111Z,97955.47
2022-08-18T22:42:33.066Z,97961.19
2022-08-18T22:45:04.798Z,97957.66
2022-08-18T22:47:43.247Z,97961.19
2022-08-18T22:50:13.736Z,97951.97
2022-08-18T22:52:46.423Z,97948.72
2022-08-18T22:55:21.920Z,97949.03
2022-08-18T22:57:55.674Z,97955.22
2022-08-18T23:00:26.444Z,97949.28
2022-08-18T23:02:55.099Z,97954.69
2022-08-18T23:05:23.421Z,97951.97
2022-08-18T23:07:51.041Z,97953.06
2022-08-18T23:10:19.302Z,97950.34
2022-08-18T23:12:48.425Z,97956.84
2022-08-18T23:15:17.864Z,97953.59
2022-08-18T23:17:45.344Z,97949.00
2022-08-18T23:20:17.956Z,97946.59
2022-08-18T23:22:47.677Z,97954.72
2022-08-18T23:25:15.282Z,97957.41
2022-08-18T23:27:43.041Z,97957.41
2022-08-18T23:30:11.536Z,97959.00
2022-08-18T23:32:39.109Z,97957.41
2022-08-18T23:35:06.977Z,97957.41
2022-08-18T23:37:35.066Z,97955.50
2022-08-18T23:40:02.804Z,97955.50
2022-08-18T23:42:31.500Z,97950.91
2022-08-18T23:45:03.535Z,97952.00
2022-08-18T23:47:31.397Z,97948.19
2022-08-18T23:49:59.004Z,97944.97
2022-08-18T23:52:26.550Z,97939.56
2022-08-18T23:54:54.120Z,97946.88
2022-08-18T23:57:21.486Z,97947.94
2022-08-18T23:59:49.967Z,97942.81
